Time;durP1;ratioP1;P1;durP2;ratioP2;P2;SDS_P1;SDS_P2;PMS_P1;PMS_P2;Temp;Humidity;BMP_temperature;BMP_pressure;BME280_temperature;BME280_humidity;BME280_pressure;Samples;Min_cycle;Max_cycle;Signal;HPM_P1;HPM_P2
2023/01/01 00:01:39;;;;;;;;;;;15.80;69.30;;;;;;5031303;28;19924;-32
2023/01/01 00:04:05;;;;;;;;;;;15.80;69.40;;;;;;5031579;28;19909;-40
2023/01/01 00:06:30;;;;;;;;;;;15.80;68.50;;;;;;5031363;28;20284;-30
2023/01/01 00:11:40;;;;;;;;;;;15.70;68.40;;;;;;5031646;28;19916;-30
2023/01/01 00:14:05;;;;;;;;;;;15.70;68.90;;;;;;5031360;28;19909;-47
2023/01/01 00:16:30;;;;;;;;;;;15.80;69.20;;;;;;5031352;28;19909;-31
2023/01/01 00:18:56;;;;;;;;;;;15.70;68.60;;;;;;5034752;28;19999;-30
2023/01/01 00:21:21;;;;;;;;;;;15.80;68.30;;;;;;5035090;28;19909;-34
2023/01/01 00:23:47;;;;;;;;;;;15.80;68.80;;;;;;5034919;28;19916;-30
2023/01/01 00:26:13;;;;;;;;;;;15.70;67.50;;;;;;5035233;28;19920;-34
2023/01/01 00:28:39;;;;;;;;;;;15.70;68.10;;;;;;5034947;28;19951;-30
2023/01/01 00:31:06;;;;;;;;;;;15.80;68.50;;;;;;5034853;28;19960;-38
2023/01/01 00:33:32;;;;;;;;;;;15.80;68.30;;;;;;5035065;28;19913;-33
2023/01/01 00:36:04;;;;;;;;;;;15.80;67.60;;;;;;5034983;28;19909;-32
2023/01/01 00:38:29;;;;;;;;;;;15.80;67.80;;;;;;5034627;28;19916;-36
2023/01/01 00:40:54;;;;;;;;;;;15.90;68.10;;;;;;5016931;28;19909;-36
2023/01/01 00:43:20;;;;;;;;;;;15.90;68.00;;;;;;5034642;28;19917;-33
2023/01/01 00:45:47;;;;;;;;;;;15.80;68.50;;;;;;5034508;28;19909;-31
2023/01/01 00:48:13;;;;;;;;;;;15.90;68.20;;;;;;5034541;28;19945;-44
2023/01/01 00:50:38;;;;;;;;;;;15.90;68.60;;;;;;5034556;28;19979;-44
2023/01/01 00:53:03;;;;;;;;;;;15.90;68.00;;;;;;5034537;28;19909;-33
2023/01/01 00:55:29;;;;;;;;;;;15.80;68.50;;;;;;5034524;28;20319;-30
2023/01/01 00:57:54;;;;;;;;;;;15.80;69.00;;;;;;5034331;28;19913;-32
2023/01/01 01:00:20;;;;;;;;;;;15.80;69.40;;;;;;5034232;28;19944;-31
2023/01/01 01:02:47;;;;;;;;;;;15.70;68.90;;;;;;5033499;28;21519;-34
2023/01/01 01:05:13;;;;;;;;;;;15.70;69.00;;;;;;5034572;28;19953;-34
2023/01/01 01:07:38;;;;;;;;;;;15.70;69.40;;;;;;5034237;28;19917;-35
2023/01/01 01:10:04;;;;;;;;;;;15.70;69.70;;;;;;5034135;28;20249;-31
2023/01/01 01:12:31;;;;;;;;;;;15.60;69.80;;;;;;5034147;28;19909;-33
2023/01/01 01:14:57;;;;;;;;;;;15.60;69.90;;;;;;5016107;28;20364;-34
2023/01/01 01:17:23;;;;;;;;;;;15.60;69.60;;;;;;5034234;28;19971;-33
2023/01/01 01:19:48;;;;;;;;;;;15.60;70.30;;;;;;5033826;28;19909;-33
2023/01/01 01:22:13;;;;;;;;;;;15.60;69.80;;;;;;5033831;28;20352;-36
2023/01/01 01:24:39;;;;;;;;;;;15.60;69.70;;;;;;5033805;28;19916;-37
2023/01/01 01:27:05;;;;;;;;;;;15.60;69.70;;;;;;5034158;28;19996;-31
2023/01/01 01:29:30;;;;;;;;;;;15.60;69.30;;;;;;5033602;28;20387;-38
2023/01/01 01:31:55;;;;;;;;;;;15.60;68.90;;;;;;5033892;28;19909;-37
2023/01/01 01:34:21;;;;;;;;;;;15.60;69.20;;;;;;5016234;28;19952;-34
2023/01/01 01:36:47;;;;;;;;;;;15.50;68.70;;;;;;5034084;28;19909;-35
2023/01/01 01:39:13;;;;;;;;;;;15.50;69.10;;;;;;5033585;28;19909;-32
2023/01/01 01:41:38;;;;;;;;;;;15.50;69.40;;;;;;5033355;28;19932;-32
2023/01/01 01:44:26;;;;;;;;;;;15.50;68.90;;;;;;5033439;28;20427;-31
2023/01/01 01:46:52;;;;;;;;;;;15.50;68.80;;;;;;5033108;28;19909;-32
2023/01/01 01:49:22;;;;;;;;;;;15.50;68.70;;;;;;5033155;28;19971;-30
2023/01/01 01:51:48;;;;;;;;;;;15.50;68.70;;;;;;5033215;28;20372;-31
2023/01/01 01:54:16;;;;;;;;;;;15.50;69.40;;;;;;5033109;28;19909;-30
2023/01/01 01:56:45;;;;;;;;;;;15.40;69.60;;;;;;5033276;28;20393;-36
2023/01/01 01:59:11;;;;;;;;;;;15.40;69.70;;;;;;5032983;28;20323;-29
2023/01/01 02:01:37;;;;;;;;;;;15.40;69.70;;;;;;5033241;28;19921;-30
2023/01/01 02:04:03;;;;;;;;;;;15.40;69.30;;;;;;5033200;28;20296;-31
2023/01/01 02:06:30;;;;;;;;;;;15.40;68.70;;;;;;5032827;28;20369;-35
2023/01/01 02:08:56;;;;;;;;;;;15.50;68.60;;;;;;5032831;28;19945;-35
2023/01/01 02:11:22;;;;;;;;;;;15.40;67.40;;;;;;5032746;28;20365;-39
2023/01/01 02:13:48;;;;;;;;;;;15.40;68.50;;;;;;5032691;28;19920;-31
2023/01/01 02:16:19;;;;;;;;;;;15.50;67.60;;;;;;5032571;28;19913;-34
2023/01/01 02:18:59;;;;;;;;;;;15.40;68.40;;;;;;5032935;28;19913;-35
2023/01/01 02:21:29;;;;;;;;;;;15.50;68.30;;;;;;5032676;28;20380;-30
2023/01/01 02:23:54;;;;;;;;;;;15.50;68.30;;;;;;5032342;28;19913;-29
2023/01/01 02:26:37;;;;;;;;;;;15.40;68.40;;;;;;5032361;28;19968;-33
2023/01/01 02:29:11;;;;;;;;;;;15.40;68.40;;;;;;5032484;28;20451;-34
2023/01/01 02:31:41;;;;;;;;;;;15.40;68.70;;;;;;5032475;28;19978;-37
2023/01/01 02:34:09;;;;;;;;;;;15.40;68.00;;;;;;5032143;28;19913;-29
2023/01/01 02:36:37;;;;;;;;;;;15.40;68.30;;;;;;5031992;28;19920;-29
2023/01/01 02:39:04;;;;;;;;;;;15.40;68.50;;;;;;5031982;28;19913;-31
2023/01/01 02:41:32;;;;;;;;;;;15.40;68.50;;;;;;5031132;28;19920;-39
2023/01/01 02:43:57;;;;;;;;;;;15.40;68.30;;;;;;5031927;28;19914;-29
2023/01/01 02:46:29;;;;;;;;;;;15.40;68.20;;;;;;5031862;28;19987;-29
2023/01/01 02:48:54;;;;;;;;;;;15.40;68.90;;;;;;5032089;28;19953;-30
2023/01/01 02:51:29;;;;;;;;;;;15.40;68.00;;;;;;5014084;28;20332;-31
2023/01/01 02:53:54;;;;;;;;;;;15.40;68.20;;;;;;5032098;28;19939;-40
2023/01/01 02:56:37;;;;;;;;;;;15.40;66.60;;;;;;5031583;28;19913;-32
2023/01/01 03:02:10;;;;;;;;;;;15.40;67.60;;;;;;5031720;28;19929;-30
2023/01/01 03:04:47;;;;;;;;;;;15.40;67.80;;;;;;5031837;28;19935;-29
2023/01/01 03:07:18;;;;;;;;;;;15.40;67.60;;;;;;5031705;28;20004;-41
2023/01/01 03:09:55;;;;;;;;;;;15.40;66.80;;;;;;5031556;28;20011;-35
2023/01/01 03:12:25;;;;;;;;;;;15.40;67.00;;;;;;5013658;28;19913;-32
2023/01/01 03:14:51;;;;;;;;;;;15.40;66.70;;;;;;5031522;28;20041;-30
2023/01/01 03:17:26;;;;;;;;;;;15.40;67.10;;;;;;5031481;28;19914;-41
2023/01/01 03:19:52;;;;;;;;;;;15.50;67.30;;;;;;5031595;28;20376;-30
2023/01/01 03:22:19;;;;;;;;;;;15.40;67.80;;;;;;5031298;28;20377;-35
2023/01/01 03:24:53;;;;;;;;;;;15.40;67.90;;;;;;5031243;28;19920;-33
2023/01/01 03:27:28;;;;;;;;;;;15.40;68.70;;;;;;5031275;28;19913;-35
2023/01/01 03:29:55;;;;;;;;;;;15.40;67.40;;;;;;5031230;28;19913;-29
2023/01/01 03:32:58;;;;;;;;;;;15.40;67.50;;;;;;5031323;28;19913;-29
2023/01/01 03:35:13;;;;;;;;;;;15.40;67.90;;;;;;5031372;28;19914;-35
2023/01/01 03:37:41;;;;;;;;;;;15.40;67.70;;;;;;5031594;28;19920;-32
2023/01/01 03:40:08;;;;;;;;;;;15.40;67.70;;;;;;5031294;28;19913;-36
2023/01/01 03:42:35;;;;;;;;;;;15.40;67.60;;;;;;5031199;28;19920;-27
2023/01/01 03:45:03;;;;;;;;;;;15.30;67.80;;;;;;5031644;28;19944;-34
2023/01/01 03:47:29;;;;;;;;;;;15.30;68.30;;;;;;5031621;28;19961;-36
2023/01/01 03:49:56;;;;;;;;;;;15.30;67.50;;;;;;5031056;28;19956;-29
2023/01/01 03:52:33;;;;;;;;;;;15.30;67.10;;;;;;5034058;28;19917;-29
2023/01/01 03:55:15;;;;;;;;;;;15.30;67.40;;;;;;5035265;28;19913;-30
2023/01/01 03:57:59;;;;;;;;;;;15.30;67.60;;;;;;5035038;28;20331;-32
2023/01/01 04:00:28;;;;;;;;;;;15.30;67.80;;;;;;5034824;28;19917;-28
2023/01/01 04:03:11;;;;;;;;;;;15.30;67.90;;;;;;5034774;28;19932;-31
2023/01/01 04:05:38;;;;;;;;;;;15.30;67.90;;;;;;5035059;28;20327;-30
2023/01/01 04:08:03;;;;;;;;;;;15.30;67.80;;;;;;5034910;28;20455;-32
2023/01/01 04:10:30;;;;;;;;;;;15.20;67.50;;;;;;5034762;28;20115;-33
2023/01/01 04:12:56;;;;;;;;;;;15.30;67.80;;;;;;5034734;28;19913;-30
2023/01/01 04:15:23;;;;;;;;;;;15.20;67.70;;;;;;5034657;28;20197;-30
2023/01/01 04:17:49;;;;;;;;;;;15.20;67.30;;;;;;5034677;28;19913;-33
2023/01/01 04:20:14;;;;;;;;;;;15.20;67.50;;;;;;5034633;28;19913;-32
2023/01/01 04:22:40;;;;;;;;;;;15.20;67.50;;;;;;5034743;28;19933;-30
2023/01/01 04:25:06;;;;;;;;;;;15.20;67.50;;;;;;5034540;28;19913;-30
2023/01/01 04:27:32;;;;;;;;;;;15.20;67.20;;;;;;5016769;28;19913;-28
2023/01/01 04:29:57;;;;;;;;;;;15.20;67.50;;;;;;5034581;28;19913;-29
2023/01/01 04:32:22;;;;;;;;;;;15.20;67.00;;;;;;5034579;28;20004;-34
2023/01/01 04:34:48;;;;;;;;;;;15.20;66.80;;;;;;5016744;28;19920;-33
2023/01/01 04:37:13;;;;;;;;;;;15.20;67.10;;;;;;5034710;28;19917;-29
2023/01/01 04:39:39;;;;;;;;;;;15.20;67.10;;;;;;5034615;28;20376;-38
2023/01/01 04:42:05;;;;;;;;;;;15.20;67.20;;;;;;5034322;28;19921;-44
2023/01/01 04:44:30;;;;;;;;;;;15.30;67.00;;;;;;5034503;28;19924;-29
2023/01/01 04:46:56;;;;;;;;;;;15.30;67.40;;;;;;5034192;28;19917;-30
2023/01/01 04:49:21;;;;;;;;;;;15.20;67.60;;;;;;5034332;28;19913;-31
2023/01/01 04:51:47;;;;;;;;;;;15.20;67.50;;;;;;5034330;28;20287;-29
2023/01/01 04:54:12;;;;;;;;;;;15.20;67.70;;;;;;5033920;28;20023;-30
2023/01/01 04:56:38;;;;;;;;;;;15.20;67.80;;;;;;5033941;28;19975;-28
2023/01/01 04:59:03;;;;;;;;;;;15.20;67.70;;;;;;5033992;28;20391;-30
2023/01/01 05:01:30;;;;;;;;;;;15.20;67.60;;;;;;5033597;28;20024;-29
2023/01/01 05:03:56;;;;;;;;;;;15.20;67.90;;;;;;5033149;28;19920;-30
2023/01/01 05:06:22;;;;;;;;;;;15.20;67.90;;;;;;5034024;28;19913;-31
2023/01/01 05:08:48;;;;;;;;;;;15.20;67.60;;;;;;5034170;28;19909;-29
2023/01/01 05:11:14;;;;;;;;;;;15.20;67.80;;;;;;5034333;28;19916;-35
2023/01/01 05:13:40;;;;;;;;;;;15.20;67.50;;;;;;5033971;28;20380;-29
2023/01/01 05:16:07;;;;;;;;;;;15.20;67.70;;;;;;5034157;28;20442;-29
2023/01/01 05:18:33;;;;;;;;;;;15.20;67.70;;;;;;5033866;28;19990;-36
2023/01/01 05:20:59;;;;;;;;;;;15.20;68.20;;;;;;5034179;28;19920;-31
2023/01/01 05:23:25;;;;;;;;;;;15.10;67.20;;;;;;5033718;28;20007;-28
2023/01/01 05:25:50;;;;;;;;;;;15.10;67.70;;;;;;5034099;28;19952;-31
2023/01/01 05:28:16;;;;;;;;;;;15.10;68.00;;;;;;5033833;28;19909;-30
2023/01/01 05:30:41;;;;;;;;;;;15.10;68.30;;;;;;5033639;28;19913;-28
2023/01/01 05:33:07;;;;;;;;;;;15.10;68.50;;;;;;5033818;28;19909;-28
2023/01/01 05:35:32;;;;;;;;;;;15.10;68.50;;;;;;5033602;28;19913;-29
2023/01/01 05:37:59;;;;;;;;;;;15.00;68.70;;;;;;5033573;28;19909;-29
2023/01/01 05:40:24;;;;;;;;;;;15.00;69.10;;;;;;5033718;28;20011;-28
2023/01/01 05:42:50;;;;;;;;;;;15.00;69.20;;;;;;5033692;28;19913;-29
2023/01/01 05:45:15;;;;;;;;;;;15.00;69.20;;;;;;5033333;28;19915;-32
2023/01/01 05:47:41;;;;;;;;;;;15.00;68.80;;;;;;5033709;28;19917;-38
2023/01/01 05:50:07;;;;;;;;;;;15.00;66.60;;;;;;5033307;28;19910;-28
2023/01/01 05:52:32;;;;;;;;;;;15.00;66.30;;;;;;5033176;28;20396;-31
2023/01/01 05:54:59;;;;;;;;;;;14.90;66.20;;;;;;5033250;28;19913;-28
2023/01/01 05:57:26;;;;;;;;;;;14.90;65.90;;;;;;5033316;28;19909;-35
2023/01/01 05:59:52;;;;;;;;;;;14.90;66.00;;;;;;5032911;28;19917;-28
2023/01/01 06:02:17;;;;;;;;;;;14.80;66.60;;;;;;5033342;28;19917;-29
2023/01/01 06:04:43;;;;;;;;;;;14.80;67.10;;;;;;5033395;28;19939;-35
2023/01/01 06:07:08;;;;;;;;;;;14.80;67.50;;;;;;5033232;28;19988;-33
2023/01/01 06:09:34;;;;;;;;;;;14.80;68.00;;;;;;5032909;28;19913;-29
2023/01/01 06:11:59;;;;;;;;;;;14.70;67.90;;;;;;5033204;28;19960;-34
2023/01/01 06:14:24;;;;;;;;;;;14.70;67.10;;;;;;5032324;28;20427;-29
2023/01/01 06:16:50;;;;;;;;;;;14.70;66.90;;;;;;5032288;28;19909;-32
2023/01/01 06:19:15;;;;;;;;;;;14.70;66.80;;;;;;5032714;28;19917;-29
2023/01/01 06:21:41;;;;;;;;;;;14.60;65.40;;;;;;5032629;28;20003;-30
2023/01/01 06:24:07;;;;;;;;;;;14.70;65.80;;;;;;5032667;28;19928;-31
2023/01/01 06:26:33;;;;;;;;;;;14.60;65.80;;;;;;5032578;28;20055;-42
2023/01/01 06:28:59;;;;;;;;;;;14.70;66.00;;;;;;5032752;28;19909;-33
2023/01/01 06:31:25;;;;;;;;;;;14.60;66.60;;;;;;5032888;28;20333;-29
2023/01/01 06:33:50;;;;;;;;;;;14.60;66.80;;;;;;5032440;28;19953;-38
2023/01/01 06:36:17;;;;;;;;;;;14.60;67.10;;;;;;5032667;28;20345;-32
2023/01/01 06:38:43;;;;;;;;;;;14.60;67.40;;;;;;5032678;28;20358;-38
2023/01/01 06:41:10;;;;;;;;;;;14.50;67.80;;;;;;5032541;28;19932;-33
2023/01/01 06:43:36;;;;;;;;;;;14.50;68.10;;;;;;5014890;28;20367;-34
2023/01/01 06:46:14;;;;;;;;;;;14.50;68.50;;;;;;5032263;28;20008;-36
2023/01/01 06:48:39;;;;;;;;;;;14.40;68.70;;;;;;5032634;28;20076;-35
2023/01/01 06:51:09;;;;;;;;;;;14.40;68.90;;;;;;5032474;28;19976;-34
2023/01/01 06:53:35;;;;;;;;;;;14.30;69.10;;;;;;5032471;28;20364;-34
2023/01/01 06:56:00;;;;;;;;;;;14.30;69.30;;;;;;5032093;28;19971;-32
2023/01/01 06:58:26;;;;;;;;;;;14.30;69.40;;;;;;5032053;28;19971;-35
2023/01/01 07:00:51;;;;;;;;;;;14.30;69.50;;;;;;5031942;28;20404;-30
2023/01/01 07:03:17;;;;;;;;;;;14.30;69.70;;;;;;5032064;28;20442;-35
2023/01/01 07:05:42;;;;;;;;;;;14.30;69.80;;;;;;5031926;28;19920;-31
2023/01/01 07:08:08;;;;;;;;;;;14.20;69.60;;;;;;5031929;28;19909;-29
2023/01/01 07:10:33;;;;;;;;;;;14.20;69.10;;;;;;5031842;28;19959;-32
2023/01/01 07:12:59;;;;;;;;;;;14.20;69.10;;;;;;5031929;28;19910;-31
2023/01/01 07:15:25;;;;;;;;;;;14.10;69.50;;;;;;5032145;28;19913;-35
2023/01/01 07:17:51;;;;;;;;;;;14.10;68.20;;;;;;5031700;28;19909;-32
2023/01/01 07:20:16;;;;;;;;;;;14.00;67.90;;;;;;5031730;28;19959;-29
2023/01/01 07:22:42;;;;;;;;;;;13.90;68.70;;;;;;5031721;28;20460;-29
2023/01/01 07:25:09;;;;;;;;;;;13.80;69.10;;;;;;5032101;28;19909;-28
2023/01/01 07:27:34;;;;;;;;;;;13.80;69.30;;;;;;5037590;28;20386;-29
2023/01/01 07:30:00;;;;;;;;;;;13.70;69.20;;;;;;5038419;28;19909;-31
2023/01/01 07:32:25;;;;;;;;;;;13.70;69.70;;;;;;5038307;28;19909;-29
2023/01/01 07:34:51;;;;;;;;;;;13.60;69.90;;;;;;5038352;28;20008;-31
2023/01/01 07:37:16;;;;;;;;;;;13.50;70.40;;;;;;5038390;28;19910;-29
2023/01/01 07:39:42;;;;;;;;;;;13.50;70.60;;;;;;5038558;28;20289;-28
2023/01/01 07:42:07;;;;;;;;;;;13.40;71.10;;;;;;5038151;28;20015;-28
2023/01/01 07:44:33;;;;;;;;;;;13.40;71.50;;;;;;5038156;28;20023;-29
2023/01/01 07:47:04;;;;;;;;;;;13.30;71.90;;;;;;5038270;28;20226;-45
2023/01/01 07:49:30;;;;;;;;;;;13.20;72.10;;;;;;5038240;28;20047;-36
2023/01/01 07:51:56;;;;;;;;;;;13.10;72.30;;;;;;5038058;28;19975;-28
2023/01/01 07:54:21;;;;;;;;;;;13.10;72.60;;;;;;5038363;28;19909;-39
2023/01/01 07:56:47;;;;;;;;;;;13.00;72.80;;;;;;5038063;28;19991;-31
2023/01/01 07:59:12;;;;;;;;;;;13.00;72.90;;;;;;5038214;28;20305;-37
2023/01/01 08:01:37;;;;;;;;;;;13.00;73.00;;;;;;5037823;28;19913;-27
2023/01/01 08:04:03;;;;;;;;;;;12.90;73.10;;;;;;5038195;28;19920;-29
2023/01/01 08:06:29;;;;;;;;;;;12.90;73.20;;;;;;5038130;28;20270;-30
2023/01/01 08:08:54;;;;;;;;;;;12.90;73.30;;;;;;5037921;28;20372;-28
2023/01/01 08:11:20;;;;;;;;;;;12.90;73.50;;;;;;5037872;28;20008;-29
2023/01/01 08:13:45;;;;;;;;;;;12.90;73.50;;;;;;5038018;28;19916;-30
2023/01/01 08:16:11;;;;;;;;;;;12.90;73.60;;;;;;5037905;28;19996;-30
2023/01/01 08:18:36;;;;;;;;;;;12.90;73.60;;;;;;5037873;28;19959;-28
2023/01/01 08:21:02;;;;;;;;;;;13.00;73.70;;;;;;5037757;28;19916;-29
2023/01/01 08:23:28;;;;;;;;;;;13.00;73.70;;;;;;5037984;28;20336;-28
2023/01/01 08:25:57;;;;;;;;;;;12.90;73.70;;;;;;5037908;28;19956;-31
2023/01/01 08:28:22;;;;;;;;;;;12.90;73.80;;;;;;5038155;28;20000;-31
2023/01/01 08:30:48;;;;;;;;;;;12.90;73.80;;;;;;5037704;28;19952;-29
2023/01/01 08:33:13;;;;;;;;;;;12.90;73.80;;;;;;5037741;28;19909;-34
2023/01/01 08:35:40;;;;;;;;;;;13.00;73.90;;;;;;5037820;28;19909;-29
2023/01/01 08:38:06;;;;;;;;;;;13.00;73.90;;;;;;5035351;28;19960;-30
2023/01/01 08:40:31;;;;;;;;;;;13.00;73.80;;;;;;5034850;28;19979;-30
2023/01/01 08:42:56;;;;;;;;;;;13.00;73.80;;;;;;5034535;28;20422;-29
2023/01/01 08:45:22;;;;;;;;;;;12.90;73.70;;;;;;5034542;28;19913;-29
2023/01/01 08:47:47;;;;;;;;;;;12.90;73.90;;;;;;5034795;28;19909;-30
2023/01/01 08:50:13;;;;;;;;;;;12.90;74.00;;;;;;5034548;28;19917;-34
2023/01/01 08:52:38;;;;;;;;;;;13.00;74.10;;;;;;5034772;28;19959;-31
2023/01/01 08:55:04;;;;;;;;;;;12.90;74.10;;;;;;5034675;28;19920;-32
2023/01/01 08:57:30;;;;;;;;;;;13.00;74.30;;;;;;5034296;28;19909;-29
2023/01/01 08:59:55;;;;;;;;;;;13.00;74.40;;;;;;5034551;28;19928;-29
2023/01/01 09:02:21;;;;;;;;;;;13.00;74.30;;;;;;5034615;28;20012;-31
2023/01/01 09:04:46;;;;;;;;;;;13.00;74.20;;;;;;5034287;28;19913;-43
2023/01/01 09:07:12;;;;;;;;;;;13.00;74.30;;;;;;5034274;28;19909;-47
2023/01/01 09:09:37;;;;;;;;;;;13.00;74.30;;;;;;5034165;28;20460;-34
2023/01/01 09:12:04;;;;;;;;;;;13.00;74.30;;;;;;5034155;28;19913;-32
2023/01/01 09:14:31;;;;;;;;;;;13.00;74.30;;;;;;5034058;28;19916;-32
2023/01/01 09:16:56;;;;;;;;;;;13.10;74.40;;;;;;5034001;28;19916;-30
2023/01/01 09:19:22;;;;;;;;;;;13.10;74.50;;;;;;5033942;28;20357;-33
2023/01/01 09:21:48;;;;;;;;;;;13.10;74.50;;;;;;5033118;28;20290;-33
2023/01/01 09:24:13;;;;;;;;;;;13.10;74.50;;;;;;5033744;28;19917;-38
2023/01/01 09:26:39;;;;;;;;;;;13.10;74.60;;;;;;5033481;28;19932;-29
2023/01/01 09:29:04;;;;;;;;;;;13.10;74.80;;;;;;5034224;28;19996;-29
2023/01/01 09:31:30;;;;;;;;;;;13.10;74.90;;;;;;5034576;28;19909;-29
2023/01/01 09:33:55;;;;;;;;;;;13.10;75.00;;;;;;5034633;28;19959;-32
2023/01/01 09:36:20;;;;;;;;;;;13.10;75.10;;;;;;5034371;28;20621;-31
2023/01/01 09:38:50;;;;;;;;;;;13.10;75.10;;;;;;5033696;28;19909;-35
2023/01/01 09:41:30;;;;;;;;;;;13.10;75.30;;;;;;5034016;28;19909;-31
2023/01/01 09:44:01;;;;;;;;;;;13.10;75.50;;;;;;5033986;28;20000;-30
2023/01/01 09:46:27;;;;;;;;;;;13.00;75.50;;;;;;5033974;28;19994;-31
2023/01/01 09:48:57;;;;;;;;;;;13.00;75.70;;;;;;5034112;28;20372;-40
2023/01/01 09:51:24;;;;;;;;;;;13.00;75.80;;;;;;5033907;28;20004;-39
2023/01/01 09:53:52;;;;;;;;;;;13.00;75.80;;;;;;5034004;28;19992;-28
2023/01/01 09:56:22;;;;;;;;;;;13.10;75.90;;;;;;5034064;28;19955;-30
2023/01/01 09:58:47;;;;;;;;;;;13.10;76.00;;;;;;5033679;28;19909;-33
2023/01/01 10:01:35;;;;;;;;;;;13.10;76.00;;;;;;5033743;28;19972;-35
2023/01/01 10:04:10;;;;;;;;;;;13.20;76.10;;;;;;5033699;28;19913;-32
2023/01/01 10:06:40;;;;;;;;;;;13.20;76.10;;;;;;5033640;28;19916;-31
2023/01/01 10:09:19;;;;;;;;;;;13.20;76.10;;;;;;5033764;28;19910;-30
2023/01/01 10:11:51;;;;;;;;;;;13.30;76.30;;;;;;5033579;28;19909;-31
2023/01/01 10:14:22;;;;;;;;;;;13.30;76.20;;;;;;5033710;28;19978;-29
2023/01/01 10:16:50;;;;;;;;;;;13.30;76.40;;;;;;5033273;28;19909;-29
2023/01/01 10:19:24;;;;;;;;;;;13.30;76.40;;;;;;5033437;28;19913;-32
2023/01/01 10:21:51;;;;;;;;;;;13.30;76.40;;;;;;5015493;28;20356;-28
2023/01/01 10:24:35;;;;;;;;;;;13.30;76.50;;;;;;5033223;28;20014;-34
2023/01/01 10:27:02;;;;;;;;;;;13.40;76.80;;;;;;5033388;28;19909;-29
2023/01/01 10:29:36;;;;;;;;;;;13.40;76.80;;;;;;5033317;28;19917;-29
2023/01/01 10:32:22;;;;;;;;;;;13.40;76.90;;;;;;5033378;28;20371;-29
2023/01/01 10:34:49;;;;;;;;;;;13.40;77.40;;;;;;5033397;28;19982;-28
2023/01/01 10:37:14;;;;;;;;;;;13.30;77.50;;;;;;5033466;28;20241;-29
2023/01/01 10:39:41;;;;;;;;;;;13.30;78.00;;;;;;5033221;28;19917;-30
2023/01/01 10:42:09;;;;;;;;;;;13.30;78.20;;;;;;5033261;28;19920;-34
2023/01/01 10:44:35;;;;;;;;;;;13.20;78.10;;;;;;5033065;28;19959;-29
2023/01/01 10:47:10;;;;;;;;;;;13.20;78.50;;;;;;5033163;28;19924;-31
2023/01/01 10:49:52;;;;;;;;;;;13.20;78.50;;;;;;5032979;28;19996;-29
2023/01/01 10:52:17;;;;;;;;;;;13.20;78.90;;;;;;5032982;28;19964;-29
2023/01/01 10:54:43;;;;;;;;;;;13.10;78.80;;;;;;5032768;28;19913;-34
2023/01/01 10:57:17;;;;;;;;;;;13.10;79.00;;;;;;5033001;28;19913;-29
2023/01/01 10:59:43;;;;;;;;;;;13.00;79.00;;;;;;5032760;28;20387;-39
2023/01/01 11:02:16;;;;;;;;;;;13.00;79.30;;;;;;5032333;28;19913;-30
2023/01/01 11:04:42;;;;;;;;;;;12.90;79.40;;;;;;5033065;28;19909;-28
2023/01/01 11:07:08;;;;;;;;;;;12.90;79.50;;;;;;5032790;28;19935;-30
2023/01/01 11:09:38;;;;;;;;;;;12.90;79.60;;;;;;5032618;28;19916;-30
2023/01/01 11:12:07;;;;;;;;;;;12.90;79.70;;;;;;5032838;28;20067;-30
2023/01/01 11:14:37;;;;;;;;;;;12.90;79.90;;;;;;5032926;28;19909;-34
2023/01/01 11:17:02;;;;;;;;;;;12.90;79.90;;;;;;5032786;28;20084;-37
2023/01/01 11:19:30;;;;;;;;;;;12.90;79.80;;;;;;5032901;28;19948;-29
2023/01/01 11:21:56;;;;;;;;;;;12.90;80.40;;;;;;5032440;28;19909;-33
2023/01/01 11:24:25;;;;;;;;;;;13.00;79.80;;;;;;5032483;28;19932;-28
2023/01/01 11:26:51;;;;;;;;;;;13.00;79.80;;;;;;5032490;28;19909;-30
2023/01/01 11:29:24;;;;;;;;;;;13.00;79.90;;;;;;5032499;28;19955;-31
2023/01/01 11:31:50;;;;;;;;;;;13.00;80.10;;;;;;5032431;28;19916;-29
2023/01/01 11:34:35;;;;;;;;;;;13.00;80.00;;;;;;5032492;28;20062;-31
2023/01/01 11:37:13;;;;;;;;;;;13.00;80.10;;;;;;5032466;28;20004;-31
2023/01/01 11:39:46;;;;;;;;;;;13.10;80.20;;;;;;5032540;28;19913;-31
2023/01/01 11:42:16;;;;;;;;;;;13.10;80.10;;;;;;5032236;28;19913;-28
2023/01/01 11:44:44;;;;;;;;;;;13.10;80.10;;;;;;5032388;28;19937;-30
2023/01/01 11:47:21;;;;;;;;;;;13.10;80.00;;;;;;5033023;28;19917;-32
2023/01/01 11:49:52;;;;;;;;;;;13.20;80.00;;;;;;5032619;28;19909;-28
2023/01/01 11:52:32;;;;;;;;;;;13.20;80.00;;;;;;5032461;28;19909;-32
2023/01/01 11:55:02;;;;;;;;;;;13.20;80.00;;;;;;5032425;28;19909;-31
2023/01/01 11:57:27;;;;;;;;;;;13.30;80.00;;;;;;5014663;28;19909;-31
2023/01/01 11:59:57;;;;;;;;;;;13.40;80.00;;;;;;5032242;28;20357;-33
2023/01/01 12:02:31;;;;;;;;;;;13.40;80.00;;;;;;5032246;28;19966;-32
2023/01/01 12:05:03;;;;;;;;;;;13.40;80.00;;;;;;5032222;28;19915;-31
2023/01/01 12:07:31;;;;;;;;;;;13.50;80.00;;;;;;5032308;28;19909;-31
2023/01/01 12:10:00;;;;;;;;;;;13.50;80.00;;;;;;5032207;28;19909;-32
2023/01/01 12:12:31;;;;;;;;;;;13.50;80.10;;;;;;5032441;28;19909;-35
2023/01/01 12:15:09;;;;;;;;;;;13.50;80.10;;;;;;5035929;28;19909;-35
2023/01/01 12:17:41;;;;;;;;;;;13.50;80.20;;;;;;5035894;28;19983;-35
2023/01/01 12:20:22;;;;;;;;;;;13.50;80.20;;;;;;5035778;28;19915;-32
2023/01/01 12:22:47;;;;;;;;;;;13.50;80.40;;;;;;5017921;28;19917;-31
2023/01/01 12:25:14;;;;;;;;;;;13.60;80.50;;;;;;5035864;28;20288;-30
2023/01/01 12:27:46;;;;;;;;;;;13.60;80.50;;;;;;5035956;28;19916;-28
2023/01/01 12:30:26;;;;;;;;;;;13.60;80.50;;;;;;5035571;28;20000;-29
2023/01/01 12:32:51;;;;;;;;;;;13.60;80.50;;;;;;5035560;28;19955;-33
2023/01/01 12:35:17;;;;;;;;;;;13.60;80.50;;;;;;5035860;28;19913;-31
2023/01/01 12:38:01;;;;;;;;;;;13.70;80.50;;;;;;5035569;28;19913;-38
2023/01/01 12:40:42;;;;;;;;;;;13.70;80.50;;;;;;5035681;28;19991;-31
2023/01/01 12:43:30;;;;;;;;;;;13.80;80.60;;;;;;5035273;28;19920;-32
2023/01/01 12:46:22;;;;;;;;;;;13.90;80.40;;;;;;5026982;28;20302;-33
2023/01/01 12:48:59;;;;;;;;;;;14.00;80.40;;;;;;5035641;28;19909;-30
2023/01/01 12:51:44;;;;;;;;;;;14.00;80.20;;;;;;5035585;28;20238;-34
2023/01/01 12:54:28;;;;;;;;;;;14.10;80.20;;;;;;5035451;28;20420;-32
2023/01/01 12:57:01;;;;;;;;;;;14.10;80.10;;;;;;5035098;28;19917;-30
2023/01/01 12:59:35;;;;;;;;;;;14.10;80.00;;;;;;5034960;28;19951;-32
2023/01/01 13:02:02;;;;;;;;;;;14.10;80.60;;;;;;5035059;28;19924;-30
2023/01/01 13:04:28;;;;;;;;;;;14.10;80.00;;;;;;5034898;28;19910;-35
2023/01/01 13:07:07;;;;;;;;;;;14.10;79.90;;;;;;5034960;28;20250;-32
2023/01/01 13:09:37;;;;;;;;;;;14.10;79.90;;;;;;5035260;28;19909;-30
2023/01/01 13:12:08;;;;;;;;;;;14.10;79.80;;;;;;5034766;28;19916;-30
2023/01/01 13:14:38;;;;;;;;;;;14.20;79.90;;;;;;5034863;28;20014;-32
2023/01/01 13:17:03;;;;;;;;;;;14.20;79.80;;;;;;5035131;28;19909;-31
2023/01/01 13:19:36;;;;;;;;;;;14.10;79.60;;;;;;5034795;28;20016;-33
2023/01/01 13:22:20;;;;;;;;;;;14.20;79.70;;;;;;5034846;28;19967;-34
2023/01/01 13:25:01;;;;;;;;;;;14.10;79.60;;;;;;5034093;28;19927;-29
2023/01/01 13:27:59;;;;;;;;;;;14.10;79.40;;;;;;5034649;28;19909;-34
2023/01/01 13:30:40;;;;;;;;;;;14.10;79.50;;;;;;5034289;28;19909;-31
2023/01/01 13:33:23;;;;;;;;;;;14.10;79.60;;;;;;5034836;28;20254;-32
2023/01/01 13:36:06;;;;;;;;;;;14.10;79.60;;;;;;5034689;28;19979;-34
2023/01/01 13:38:48;;;;;;;;;;;14.00;79.50;;;;;;5034635;28;19909;-31
2023/01/01 13:41:26;;;;;;;;;;;14.00;79.50;;;;;;5034308;28;19952;-34
2023/01/01 13:44:01;;;;;;;;;;;13.90;79.50;;;;;;5034455;28;20289;-30
2023/01/01 13:46:27;;;;;;;;;;;13.90;79.60;;;;;;5034233;28;19909;-30
2023/01/01 13:49:01;;;;;;;;;;;13.90;79.60;;;;;;5034150;28;19913;-37
2023/01/01 13:51:45;;;;;;;;;;;13.90;79.70;;;;;;5034432;28;19992;-33
2023/01/01 13:54:16;;;;;;;;;;;13.90;79.70;;;;;;5034175;28;20284;-31
2023/01/01 13:56:46;;;;;;;;;;;13.90;79.70;;;;;;5033901;28;19909;-29
2023/01/01 13:59:24;;;;;;;;;;;13.90;79.60;;;;;;5034056;28;19909;-30
2023/01/01 14:01:49;;;;;;;;;;;13.90;79.60;;;;;;5033802;28;19917;-30
2023/01/01 14:04:22;;;;;;;;;;;13.90;79.60;;;;;;5034049;28;20411;-31
2023/01/01 14:06:49;;;;;;;;;;;13.90;79.60;;;;;;5033833;28;19915;-30
2023/01/01 14:09:16;;;;;;;;;;;13.90;79.60;;;;;;5033973;28;20364;-35
2023/01/01 14:11:41;;;;;;;;;;;13.90;79.60;;;;;;5033832;28;19936;-30
2023/01/01 14:14:22;;;;;;;;;;;13.90;79.60;;;;;;5033860;28;19913;-33
2023/01/01 14:16:50;;;;;;;;;;;13.90;79.60;;;;;;5033471;28;19964;-31
2023/01/01 14:19:15;;;;;;;;;;;13.90;79.60;;;;;;5033573;28;19913;-37
2023/01/01 14:21:41;;;;;;;;;;;13.90;79.60;;;;;;5033477;28;19936;-43
2023/01/01 14:24:07;;;;;;;;;;;13.90;79.60;;;;;;5033430;28;20287;-33
2023/01/01 14:26:35;;;;;;;;;;;13.90;79.60;;;;;;5033372;28;19917;-30
2023/01/01 14:29:04;;;;;;;;;;;13.90;79.70;;;;;;5033305;28;19920;-34
2023/01/01 14:31:33;;;;;;;;;;;13.90;79.60;;;;;;5033536;28;19968;-32